sensor_id;sensor_type;location;lat;lon;timestamp;temperature;humidity
3055;DHT22;1537;52.018;8.542;2023-04-25T00:02:08;7.00;99.90
3055;DHT22;1537;52.018;8.542;2023-04-25T00:05:32;7.00;99.90
3055;DHT22;1537;52.018;8.542;2023-04-25T00:08:56;7.00;99.90
3055;DHT22;1537;52.018;8.542;2023-04-25T00:12:20;7.10;99.90
3055;DHT22;1537;52.018;8.542;2023-04-25T00:15:46;7.10;99.90
3055;DHT22;1537;52.018;8.542;2023-04-25T00:19:10;7.10;99.90
3055;DHT22;1537;52.018;8.542;2023-04-25T00:22:36;7.00;99.90
3055;DHT22;1537;52.018;8.542;2023-04-25T00:26:00;7.00;99.90
3055;DHT22;1537;52.018;8.542;2023-04-25T00:29:24;7.00;99.90
3055;DHT22;1537;52.018;8.542;2023-04-25T00:32:49;7.00;99.90
3055;DHT22;1537;52.018;8.542;2023-04-25T00:36:13;7.10;99.90
3055;DHT22;1537;52.018;8.542;2023-04-25T00:39:38;6.90;99.90
3055;DHT22;1537;52.018;8.542;2023-04-25T00:43:01;6.90;99.90
3055;DHT22;1537;52.018;8.542;2023-04-25T00:46:25;6.80;99.90
3055;DHT22;1537;52.018;8.542;2023-04-25T00:49:50;6.80;99.90
3055;DHT22;1537;52.018;8.542;2023-04-25T00:53:15;6.80;99.90
3055;DHT22;1537;52.018;8.542;2023-04-25T00:56:39;6.90;99.90
3055;DHT22;1537;52.018;8.542;2023-04-25T01:00:05;6.90;99.90
3055;DHT22;1537;52.018;8.542;2023-04-25T01:03:31;6.90;99.90
3055;DHT22;1537;52.018;8.542;2023-04-25T01:06:59;6.80;99.90
3055;DHT22;1537;52.018;8.542;2023-04-25T01:10:25;6.80;99.90
3055;DHT22;1537;52.018;8.542;2023-04-25T01:13:49;6.80;99.90
3055;DHT22;1537;52.018;8.542;2023-04-25T01:17:13;6.90;99.90
3055;DHT22;1537;52.018;8.542;2023-04-25T01:20:38;6.90;99.90
3055;DHT22;1537;52.018;8.542;2023-04-25T01:24:05;6.80;99.90
3055;DHT22;1537;52.018;8.542;2023-04-25T01:27:29;6.80;99.90
3055;DHT22;1537;52.018;8.542;2023-04-25T01:30:53;6.80;99.90
3055;DHT22;1537;52.018;8.542;2023-04-25T01:34:17;6.90;99.90
3055;DHT22;1537;52.018;8.542;2023-04-25T01:37:42;6.90;99.90
3055;DHT22;1537;52.018;8.542;2023-04-25T01:41:08;6.80;99.90
3055;DHT22;1537;52.018;8.542;2023-04-25T01:44:32;6.70;99.90
3055;DHT22;1537;52.018;8.542;2023-04-25T01:47:55;6.80;99.90
3055;DHT22;1537;52.018;8.542;2023-04-25T01:51:21;6.70;99.90
3055;DHT22;1537;52.018;8.542;2023-04-25T01:54:45;6.70;99.90
3055;DHT22;1537;52.018;8.542;2023-04-25T01:58:12;6.80;99.90
3055;DHT22;1537;52.018;8.542;2023-04-25T02:01:51;6.80;99.90
3055;DHT22;1537;52.018;8.542;2023-04-25T02:05:21;6.90;99.90
3055;DHT22;1537;52.018;8.542;2023-04-25T02:08:45;6.90;99.90
3055;DHT22;1537;52.018;8.542;2023-04-25T02:12:09;6.90;99.90
3055;DHT22;1537;52.018;8.542;2023-04-25T02:16:01;6.90;99.90
3055;DHT22;1537;52.018;8.542;2023-04-25T02:19:25;6.90;99.90
3055;DHT22;1537;52.018;8.542;2023-04-25T02:22:49;7.10;99.90
3055;DHT22;1537;52.018;8.542;2023-04-25T02:26:13;7.10;99.90
3055;DHT22;1537;52.018;8.542;2023-04-25T02:29:36;7.10;99.90
3055;DHT22;1537;52.018;8.542;2023-04-25T02:33:02;7.10;99.90
3055;DHT22;1537;52.018;8.542;2023-04-25T02:36:26;7.00;99.90
3055;DHT22;1537;52.018;8.542;2023-04-25T02:39:49;7.00;99.90
3055;DHT22;1537;52.018;8.542;2023-04-25T02:43:13;7.10;99.90
3055;DHT22;1537;52.018;8.542;2023-04-25T02:46:39;7.10;99.90
3055;DHT22;1537;52.018;8.542;2023-04-25T02:50:05;7.10;99.90
3055;DHT22;1537;52.018;8.542;2023-04-25T02:53:29;7.00;99.90
3055;DHT22;1537;52.018;8.542;2023-04-25T02:56:53;7.00;99.90
3055;DHT22;1537;52.018;8.542;2023-04-25T03:00:22;7.00;99.90
3055;DHT22;1537;52.018;8.542;2023-04-25T03:03:46;7.20;99.90
3055;DHT22;1537;52.018;8.542;2023-04-25T03:07:12;7.10;99.90
3055;DHT22;1537;52.018;8.542;2023-04-25T03:10:36;7.00;99.90
3055;DHT22;1537;52.018;8.542;2023-04-25T03:14:03;6.90;99.90
3055;DHT22;1537;52.018;8.542;2023-04-25T03:17:26;7.00;99.90
3055;DHT22;1537;52.018;8.542;2023-04-25T03:20:50;7.00;99.90
3055;DHT22;1537;52.018;8.542;2023-04-25T03:24:16;6.90;99.90
3055;DHT22;1537;52.018;8.542;2023-04-25T03:27:39;6.90;99.90
3055;DHT22;1537;52.018;8.542;2023-04-25T03:31:04;7.00;99.90
3055;DHT22;1537;52.018;8.542;2023-04-25T03:34:27;7.00;99.90
3055;DHT22;1537;52.018;8.542;2023-04-25T03:37:52;7.00;99.90
3055;DHT22;1537;52.018;8.542;2023-04-25T03:41:22;6.90;99.90
3055;DHT22;1537;52.018;8.542;2023-04-25T03:44:51;7.00;99.90
3055;DHT22;1537;52.018;8.542;2023-04-25T03:48:16;7.00;99.90
3055;DHT22;1537;52.018;8.542;2023-04-25T03:51:40;7.00;99.90
3055;DHT22;1537;52.018;8.542;2023-04-25T03:55:04;7.00;99.90
3055;DHT22;1537;52.018;8.542;2023-04-25T03:58:30;7.00;99.90
3055;DHT22;1537;52.018;8.542;2023-04-25T04:01:54;7.00;99.90
3055;DHT22;1537;52.018;8.542;2023-04-25T04:05:18;7.00;99.90
3055;DHT22;1537;52.018;8.542;2023-04-25T04:08:48;6.90;99.90
3055;DHT22;1537;52.018;8.542;2023-04-25T04:12:12;7.00;99.90
3055;DHT22;1537;52.018;8.542;2023-04-25T04:15:38;6.90;99.90
3055;DHT22;1537;52.018;8.542;2023-04-25T04:19:02;6.90;99.90
3055;DHT22;1537;52.018;8.542;2023-04-25T04:22:27;6.80;99.90
3055;DHT22;1537;52.018;8.542;2023-04-25T04:25:55;6.80;99.90
3055;DHT22;1537;52.018;8.542;2023-04-25T04:29:39;6.70;99.90
3055;DHT22;1537;52.018;8.542;2023-04-25T04:33:28;6.70;99.90
3055;DHT22;1537;52.018;8.542;2023-04-25T04:36:56;6.80;99.90
3055;DHT22;1537;52.018;8.542;2023-04-25T04:40:21;6.80;99.90
3055;DHT22;1537;52.018;8.542;2023-04-25T04:44:01;6.80;99.90
3055;DHT22;1537;52.018;8.542;2023-04-25T04:47:41;6.80;99.90
3055;DHT22;1537;52.018;8.542;2023-04-25T04:51:32;6.80;99.90
3055;DHT22;1537;52.018;8.542;2023-04-25T04:55:08;6.90;99.90
3055;DHT22;1537;52.018;8.542;2023-04-25T04:58:45;6.90;99.90
3055;DHT22;1537;52.018;8.542;2023-04-25T05:02:30;6.80;99.90
3055;DHT22;1537;52.018;8.542;2023-04-25T05:06:19;6.90;99.90
3055;DHT22;1537;52.018;8.542;2023-04-25T05:10:04;6.90;99.90
3055;DHT22;1537;52.018;8.542;2023-04-25T05:13:51;6.90;99.90
3055;DHT22;1537;52.018;8.542;2023-04-25T05:17:42;7.00;99.90
3055;DHT22;1537;52.018;8.542;2023-04-25T05:21:20;7.00;99.90
3055;DHT22;1537;52.018;8.542;2023-04-25T05:25:08;7.10;99.90
3055;DHT22;1537;52.018;8.542;2023-04-25T05:28:46;7.20;99.90
3055;DHT22;1537;52.018;8.542;2023-04-25T05:32:28;7.20;99.90
3055;DHT22;1537;52.018;8.542;2023-04-25T05:35:52;7.10;99.90
3055;DHT22;1537;52.018;8.542;2023-04-25T05:39:16;7.20;99.90
3055;DHT22;1537;52.018;8.542;2023-04-25T05:43:00;7.30;99.90
3055;DHT22;1537;52.018;8.542;2023-04-25T05:46:59;7.30;99.90
3055;DHT22;1537;52.018;8.542;2023-04-25T05:50:37;7.50;99.90
3055;DHT22;1537;52.018;8.542;2023-04-25T05:54:35;7.60;99.90
3055;DHT22;1537;52.018;8.542;2023-04-25T05:58:00;7.70;99.90
3055;DHT22;1537;52.018;8.542;2023-04-25T06:01:24;7.80;99.90
3055;DHT22;1537;52.018;8.542;2023-04-25T06:04:49;7.80;99.90
3055;DHT22;1537;52.018;8.542;2023-04-25T06:08:13;7.90;99.90
3055;DHT22;1537;52.018;8.542;2023-04-25T06:11:37;7.90;99.90
3055;DHT22;1537;52.018;8.542;2023-04-25T06:15:03;7.80;99.90
3055;DHT22;1537;52.018;8.542;2023-04-25T06:18:45;7.90;99.90
3055;DHT22;1537;52.018;8.542;2023-04-25T06:22:10;8.00;99.90
3055;DHT22;1537;52.018;8.542;2023-04-25T06:25:35;8.10;99.90
3055;DHT22;1537;52.018;8.542;2023-04-25T06:29:00;8.00;99.90
3055;DHT22;1537;52.018;8.542;2023-04-25T06:32:25;8.20;99.90
3055;DHT22;1537;52.018;8.542;2023-04-25T06:35:50;8.20;99.90
3055;DHT22;1537;52.018;8.542;2023-04-25T06:39:19;8.20;99.90
3055;DHT22;1537;52.018;8.542;2023-04-25T06:42:45;8.20;99.90
3055;DHT22;1537;52.018;8.542;2023-04-25T06:46:44;8.20;99.90
3055;DHT22;1537;52.018;8.542;2023-04-25T06:50:10;8.20;99.90
3055;DHT22;1537;52.018;8.542;2023-04-25T06:53:34;8.10;99.90
3055;DHT22;1537;52.018;8.542;2023-04-25T06:57:01;8.00;99.90
3055;DHT22;1537;52.018;8.542;2023-04-25T07:00:26;8.10;99.90
3055;DHT22;1537;52.018;8.542;2023-04-25T07:03:51;8.10;99.90
3055;DHT22;1537;52.018;8.542;2023-04-25T07:07:16;8.40;99.90
3055;DHT22;1537;52.018;8.542;2023-04-25T07:10:47;8.60;99.90
3055;DHT22;1537;52.018;8.542;2023-04-25T07:14:11;8.70;99.90
3055;DHT22;1537;52.018;8.542;2023-04-25T07:17:35;8.90;99.90
3055;DHT22;1537;52.018;8.542;2023-04-25T07:20:59;8.80;99.90
3055;DHT22;1537;52.018;8.542;2023-04-25T07:24:25;8.90;99.90
3055;DHT22;1537;52.018;8.542;2023-04-25T07:27:50;9.00;99.90
3055;DHT22;1537;52.018;8.542;2023-04-25T07:31:16;8.90;99.90
3055;DHT22;1537;52.018;8.542;2023-04-25T07:34:40;9.00;99.90
3055;DHT22;1537;52.018;8.542;2023-04-25T07:38:04;9.00;99.90
3055;DHT22;1537;52.018;8.542;2023-04-25T07:41:30;9.20;99.90
3055;DHT22;1537;52.018;8.542;2023-04-25T07:44:54;9.20;99.90
3055;DHT22;1537;52.018;8.542;2023-04-25T07:48:18;9.50;99.90
3055;DHT22;1537;52.018;8.542;2023-04-25T07:51:42;9.60;99.90
3055;DHT22;1537;52.018;8.542;2023-04-25T07:55:09;9.60;99.90
3055;DHT22;1537;52.018;8.542;2023-04-25T07:58:45;9.50;99.90
3055;DHT22;1537;52.018;8.542;2023-04-25T08:02:10;9.40;99.90
3055;DHT22;1537;52.018;8.542;2023-04-25T08:05:34;10.10;99.30
3055;DHT22;1537;52.018;8.542;2023-04-25T08:09:01;10.60;97.90
3055;DHT22;1537;52.018;8.542;2023-04-25T08:12:31;11.10;97.50
3055;DHT22;1537;52.018;8.542;2023-04-25T08:15:57;11.30;95.90
3055;DHT22;1537;52.018;8.542;2023-04-25T08:19:21;11.30;94.40
3055;DHT22;1537;52.018;8.542;2023-04-25T08:22:45;11.30;94.30
3055;DHT22;1537;52.018;8.542;2023-04-25T08:26:22;11.20;92.50
3055;DHT22;1537;52.018;8.542;2023-04-25T08:29:46;11.40;93.20
3055;DHT22;1537;52.018;8.542;2023-04-25T08:33:11;11.30;91.30
3055;DHT22;1537;52.018;8.542;2023-04-25T08:36:40;11.10;91.70
3055;DHT22;1537;52.018;8.542;2023-04-25T08:40:23;10.90;92.70
3055;DHT22;1537;52.018;8.542;2023-04-25T08:43:58;11.10;93.20
3055;DHT22;1537;52.018;8.542;2023-04-25T08:47:23;11.10;92.20
3055;DHT22;1537;52.018;8.542;2023-04-25T08:50:54;11.40;91.80
3055;DHT22;1537;52.018;8.542;2023-04-25T08:54:20;11.90;91.50
3055;DHT22;1537;52.018;8.542;2023-04-25T08:57:59;12.70;90.00
3055;DHT22;1537;52.018;8.542;2023-04-25T09:01:24;12.90;83.40
3055;DHT22;1537;52.018;8.542;2023-04-25T09:04:53;12.70;82.80
3055;DHT22;1537;52.018;8.542;2023-04-25T09:08:19;13.80;80.20
3055;DHT22;1537;52.018;8.542;2023-04-25T09:11:44;13.60;76.00
3055;DHT22;1537;52.018;8.542;2023-04-25T09:15:10;12.60;77.00
3055;DHT22;1537;52.018;8.542;2023-04-25T09:18:58;11.90;78.50
3055;DHT22;1537;52.018;8.542;2023-04-25T09:22:22;11.80;81.40
3055;DHT22;1537;52.018;8.542;2023-04-25T09:25:49;11.90;83.00
3055;DHT22;1537;52.018;8.542;2023-04-25T09:29:13;13.70;78.00
3055;DHT22;1537;52.018;8.542;2023-04-25T09:32:37;15.00;75.10
3055;DHT22;1537;52.018;8.542;2023-04-25T09:36:06;15.40;70.00
3055;DHT22;1537;52.018;8.542;2023-04-25T09:39:52;14.30;67.80
3055;DHT22;1537;52.018;8.542;2023-04-25T09:43:21;13.90;67.80
3055;DHT22;1537;52.018;8.542;2023-04-25T09:46:49;13.20;69.80
3055;DHT22;1537;52.018;8.542;2023-04-25T09:50:18;12.10;71.30
3055;DHT22;1537;52.018;8.542;2023-04-25T09:53:48;11.50;73.90
3055;DHT22;1537;52.018;8.542;2023-04-25T09:57:36;11.30;75.40
3055;DHT22;1537;52.018;8.542;2023-04-25T10:01:04;11.10;77.50
3055;DHT22;1537;52.018;8.542;2023-04-25T10:04:38;11.10;80.80
3055;DHT22;1537;52.018;8.542;2023-04-25T10:08:12;10.90;80.00
3055;DHT22;1537;52.018;8.542;2023-04-25T10:11:36;10.60;81.90
3055;DHT22;1537;52.018;8.542;2023-04-25T10:15:03;10.20;83.20
3055;DHT22;1537;52.018;8.542;2023-04-25T10:18:29;9.90;87.80
3055;DHT22;1537;52.018;8.542;2023-04-25T10:21:58;9.60;89.20
3055;DHT22;1537;52.018;8.542;2023-04-25T10:25:25;9.60;93.70
3055;DHT22;1537;52.018;8.542;2023-04-25T10:28:56;9.60;93.50
3055;DHT22;1537;52.018;8.542;2023-04-25T10:32:20;9.50;93.00
3055;DHT22;1537;52.018;8.542;2023-04-25T10:35:45;9.40;93.60
3055;DHT22;1537;52.018;8.542;2023-04-25T10:39:09;9.50;93.60
3055;DHT22;1537;52.018;8.542;2023-04-25T10:42:32;9.70;93.50
3055;DHT22;1537;52.018;8.542;2023-04-25T10:45:57;10.00;92.40
3055;DHT22;1537;52.018;8.542;2023-04-25T10:49:30;10.20;91.80
3055;DHT22;1537;52.018;8.542;2023-04-25T10:52:55;10.80;91.30
3055;DHT22;1537;52.018;8.542;2023-04-25T10:56:19;12.20;87.40
3055;DHT22;1537;52.018;8.542;2023-04-25T10:59:44;13.20;82.60
3055;DHT22;1537;52.018;8.542;2023-04-25T11:03:08;14.20;75.70
3055;DHT22;1537;52.018;8.542;2023-04-25T11:06:42;14.20;74.50
3055;DHT22;1537;52.018;8.542;2023-04-25T11:10:10;13.20;72.60
3055;DHT22;1537;52.018;8.542;2023-04-25T11:13:33;11.80;77.40
3055;DHT22;1537;52.018;8.542;2023-04-25T11:16:58;11.50;79.70
3055;DHT22;1537;52.018;8.542;2023-04-25T11:20:26;11.10;77.80
3055;DHT22;1537;52.018;8.542;2023-04-25T11:23:51;10.70;78.60
3055;DHT22;1537;52.018;8.542;2023-04-25T11:27:17;10.40;81.20
3055;DHT22;1537;52.018;8.542;2023-04-25T11:30:48;10.40;85.90
3055;DHT22;1537;52.018;8.542;2023-04-25T11:34:17;10.50;83.80
3055;DHT22;1537;52.018;8.542;2023-04-25T11:37:41;10.60;84.80
3055;DHT22;1537;52.018;8.542;2023-04-25T11:41:05;10.60;88.80
3055;DHT22;1537;52.018;8.542;2023-04-25T11:44:30;10.20;90.10
3055;DHT22;1537;52.018;8.542;2023-04-25T11:47:53;10.00;90.70
3055;DHT22;1537;52.018;8.542;2023-04-25T11:51:17;9.80;91.70
3055;DHT22;1537;52.018;8.542;2023-04-25T11:54:41;9.60;92.40
3055;DHT22;1537;52.018;8.542;2023-04-25T11:58:07;9.20;93.90
3055;DHT22;1537;52.018;8.542;2023-04-25T12:01:34;8.80;97.90
3055;DHT22;1537;52.018;8.542;2023-04-25T12:04:59;8.80;99.90
3055;DHT22;1537;52.018;8.542;2023-04-25T12:09:01;8.80;99.90
3055;DHT22;1537;52.018;8.542;2023-04-25T12:12:27;9.30;99.90
3055;DHT22;1537;52.018;8.542;2023-04-25T12:15:55;9.60;98.80
3055;DHT22;1537;52.018;8.542;2023-04-25T12:19:21;10.00;97.20
3055;DHT22;1537;52.018;8.542;2023-04-25T12:22:45;10.40;95.90
3055;DHT22;1537;52.018;8.542;2023-04-25T12:26:09;10.60;94.30
3055;DHT22;1537;52.018;8.542;2023-04-25T12:29:34;10.80;93.40
3055;DHT22;1537;52.018;8.542;2023-04-25T12:33:01;10.90;92.70
3055;DHT22;1537;52.018;8.542;2023-04-25T12:36:26;10.90;91.90
3055;DHT22;1537;52.018;8.542;2023-04-25T12:39:49;10.80;91.90
3055;DHT22;1537;52.018;8.542;2023-04-25T12:43:13;10.90;90.50
3055;DHT22;1537;52.018;8.542;2023-04-25T12:46:37;11.00;90.60
3055;DHT22;1537;52.018;8.542;2023-04-25T12:50:00;11.40;89.10
3055;DHT22;1537;52.018;8.542;2023-04-25T12:53:25;11.30;88.40
3055;DHT22;1537;52.018;8.542;2023-04-25T12:56:49;11.40;89.00
3055;DHT22;1537;52.018;8.542;2023-04-25T13:00:14;11.50;87.80
3055;DHT22;1537;52.018;8.542;2023-04-25T13:03:40;11.40;85.40
3055;DHT22;1537;52.018;8.542;2023-04-25T13:07:04;11.60;85.60
3055;DHT22;1537;52.018;8.542;2023-04-25T13:10:29;11.50;83.20
3055;DHT22;1537;52.018;8.542;2023-04-25T13:13:53;11.80;83.60
3055;DHT22;1537;52.018;8.542;2023-04-25T13:17:17;11.80;81.80
3055;DHT22;1537;52.018;8.542;2023-04-25T13:20:40;11.50;80.00
3055;DHT22;1537;52.018;8.542;2023-04-25T13:24:04;10.70;89.20
3055;DHT22;1537;52.018;8.542;2023-04-25T13:27:29;9.60;95.50
3055;DHT22;1537;52.018;8.542;2023-04-25T13:30:54;9.00;99.90
3055;DHT22;1537;52.018;8.542;2023-04-25T13:34:18;8.40;99.90
3055;DHT22;1537;52.018;8.542;2023-04-25T13:37:42;8.10;99.90
3055;DHT22;1537;52.018;8.542;2023-04-25T13:41:05;8.10;99.90
3055;DHT22;1537;52.018;8.542;2023-04-25T13:44:31;8.10;99.90
3055;DHT22;1537;52.018;8.542;2023-04-25T13:47:55;8.40;99.90
3055;DHT22;1537;52.018;8.542;2023-04-25T13:51:18;9.10;99.90
3055;DHT22;1537;52.018;8.542;2023-04-25T13:54:43;9.80;99.90
3055;DHT22;1537;52.018;8.542;2023-04-25T13:58:06;10.30;99.90
3055;DHT22;1537;52.018;8.542;2023-04-25T14:01:33;10.70;98.50
3055;DHT22;1537;52.018;8.542;2023-04-25T14:04:58;10.50;98.90
3055;DHT22;1537;52.018;8.542;2023-04-25T14:08:22;10.40;97.50
3055;DHT22;1537;52.018;8.542;2023-04-25T14:11:45;10.30;96.30
3055;DHT22;1537;52.018;8.542;2023-04-25T14:15:09;10.40;95.30
3055;DHT22;1537;52.018;8.542;2023-04-25T14:18:35;10.10;96.00
3055;DHT22;1537;52.018;8.542;2023-04-25T14:21:59;10.10;95.70
3055;DHT22;1537;52.018;8.542;2023-04-25T14:25:22;10.20;93.50
3055;DHT22;1537;52.018;8.542;2023-04-25T14:28:46;10.30;92.80
3055;DHT22;1537;52.018;8.542;2023-04-25T14:32:10;10.30;91.20
3055;DHT22;1537;52.018;8.542;2023-04-25T14:35:36;10.40;90.70
3055;DHT22;1537;52.018;8.542;2023-04-25T14:39:00;10.30;88.50
3055;DHT22;1537;52.018;8.542;2023-04-25T14:42:23;10.50;86.10
3055;DHT22;1537;52.018;8.542;2023-04-25T14:45:47;10.50;81.80
3055;DHT22;1537;52.018;8.542;2023-04-25T14:49:11;10.60;81.50
3055;DHT22;1537;52.018;8.542;2023-04-25T14:52:36;10.80;80.60
3055;DHT22;1537;52.018;8.542;2023-04-25T14:55:59;10.80;80.40
3055;DHT22;1537;52.018;8.542;2023-04-25T14:59:23;10.90;79.30
3055;DHT22;1537;52.018;8.542;2023-04-25T15:02:48;11.00;79.00
3055;DHT22;1537;52.018;8.542;2023-04-25T15:06:11;11.00;77.60
3055;DHT22;1537;52.018;8.542;2023-04-25T15:09:36;11.10;79.20
3055;DHT22;1537;52.018;8.542;2023-04-25T15:13:00;10.80;78.20
3055;DHT22;1537;52.018;8.542;2023-04-25T15:16:24;10.80;78.70
3055;DHT22;1537;52.018;8.542;2023-04-25T15:19:47;10.40;85.30
3055;DHT22;1537;52.018;8.542;2023-04-25T15:23:11;10.00;92.60
3055;DHT22;1537;52.018;8.542;2023-04-25T15:26:36;9.40;95.30
3055;DHT22;1537;52.018;8.542;2023-04-25T15:30:00;9.30;96.10
3055;DHT22;1537;52.018;8.542;2023-04-25T15:33:23;9.40;96.20
3055;DHT22;1537;52.018;8.542;2023-04-25T15:36:47;9.50;96.00
3055;DHT22;1537;52.018;8.542;2023-04-25T15:40:13;9.40;95.60
3055;DHT22;1537;52.018;8.542;2023-04-25T15:43:38;9.40;95.20
3055;DHT22;1537;52.018;8.542;2023-04-25T15:47:02;9.50;94.60
3055;DHT22;1537;52.018;8.542;2023-04-25T15:50:25;9.60;93.40
3055;DHT22;1537;52.018;8.542;2023-04-25T15:53:49;9.70;93.20
3055;DHT22;1537;52.018;8.542;2023-04-25T15:57:13;9.60;92.70
3055;DHT22;1537;52.018;8.542;2023-04-25T16:00:38;9.70;92.70
3055;DHT22;1537;52.018;8.542;2023-04-25T16:04:03;9.70;92.20
3055;DHT22;1537;52.018;8.542;2023-04-25T16:07:27;9.80;91.90
3055;DHT22;1537;52.018;8.542;2023-04-25T16:10:51;9.70;92.10
3055;DHT22;1537;52.018;8.542;2023-04-25T16:14:15;9.60;92.20
3055;DHT22;1537;52.018;8.542;2023-04-25T16:17:40;9.60;92.50
3055;DHT22;1537;52.018;8.542;2023-04-25T16:21:04;9.60;92.70
3055;DHT22;1537;52.018;8.542;2023-04-25T16:24:27;9.60;92.80
3055;DHT22;1537;52.018;8.542;2023-04-25T16:27:51;9.60;93.90
3055;DHT22;1537;52.018;8.542;2023-04-25T16:31:15;9.00;94.00
3055;DHT22;1537;52.018;8.542;2023-04-25T16:34:40;8.10;96.00
3055;DHT22;1537;52.018;8.542;2023-04-25T16:38:04;7.60;99.90
3055;DHT22;1537;52.018;8.542;2023-04-25T16:41:27;7.50;99.90
3055;DHT22;1537;52.018;8.542;2023-04-25T16:44:51;7.30;99.90
3055;DHT22;1537;52.018;8.542;2023-04-25T16:48:15;7.30;99.90
3055;DHT22;1537;52.018;8.542;2023-04-25T16:51:42;7.20;99.90
3055;DHT22;1537;52.018;8.542;2023-04-25T16:55:07;7.20;99.90
3055;DHT22;1537;52.018;8.542;2023-04-25T16:58:31;7.20;99.90
3055;DHT22;1537;52.018;8.542;2023-04-25T17:01:54;7.30;99.90
3055;DHT22;1537;52.018;8.542;2023-04-25T17:05:19;7.40;99.90
3055;DHT22;1537;52.018;8.542;2023-04-25T17:08:45;7.70;99.90
3055;DHT22;1537;52.018;8.542;2023-04-25T17:12:08;8.00;99.90
3055;DHT22;1537;52.018;8.542;2023-04-25T17:15:32;8.30;99.90
3055;DHT22;1537;52.018;8.542;2023-04-25T17:18:56;8.40;99.90
3055;DHT22;1537;52.018;8.542;2023-04-25T17:22:20;8.40;99.90
3055;DHT22;1537;52.018;8.542;2023-04-25T17:25:45;8.40;99.90
3055;DHT22;1537;52.018;8.542;2023-04-25T17:29:09;8.50;99.90
3055;DHT22;1537;52.018;8.542;2023-04-25T17:32:33;8.60;99.90
3055;DHT22;1537;52.018;8.542;2023-04-25T17:35:56;8.70;99.90
3055;DHT22;1537;52.018;8.542;2023-04-25T17:39:20;8.70;99.90
3055;DHT22;1537;52.018;8.542;2023-04-25T17:42:45;8.80;99.90
3055;DHT22;1537;52.018;8.542;2023-04-25T17:46:09;8.70;99.90
3055;DHT22;1537;52.018;8.542;2023-04-25T17:49:32;8.60;99.90
3055;DHT22;1537;52.018;8.542;2023-04-25T17:52:56;8.40;99.90
3055;DHT22;1537;52.018;8.542;2023-04-25T17:56:20;8.20;99.90
3055;DHT22;1537;52.018;8.542;2023-04-25T17:59:51;8.20;99.90
3055;DHT22;1537;52.018;8.542;2023-04-25T18:03:15;8.00;99.90
3055;DHT22;1537;52.018;8.542;2023-04-25T18:06:39;7.80;99.90
3055;DHT22;1537;52.018;8.542;2023-04-25T18:10:03;7.70;99.90
3055;DHT22;1537;52.018;8.542;2023-04-25T18:13:28;7.50;99.90
3055;DHT22;1537;52.018;8.542;2023-04-25T18:16:53;7.50;99.90
3055;DHT22;1537;52.018;8.542;2023-04-25T18:20:17;7.50;99.90
3055;DHT22;1537;52.018;8.542;2023-04-25T18:23:40;7.50;99.90
3055;DHT22;1537;52.018;8.542;2023-04-25T18:27:04;7.50;99.90
3055;DHT22;1537;52.018;8.542;2023-04-25T18:30:28;7.50;99.90
3055;DHT22;1537;52.018;8.542;2023-04-25T18:33:53;7.50;99.90
3055;DHT22;1537;52.018;8.542;2023-04-25T18:37:16;7.50;99.90
3055;DHT22;1537;52.018;8.542;2023-04-25T18:40:41;7.60;99.90
3055;DHT22;1537;52.018;8.542;2023-04-25T18:44:21;7.60;99.90
3055;DHT22;1537;52.018;8.542;2023-04-25T18:47:44;7.60;99.90
3055;DHT22;1537;52.018;8.542;2023-04-25T18:51:10;7.70;99.90
3055;DHT22;1537;52.018;8.542;2023-04-25T18:54:34;7.70;99.90
3055;DHT22;1537;52.018;8.542;2023-04-25T18:57:58;7.70;99.90
3055;DHT22;1537;52.018;8.542;2023-04-25T19:01:23;7.70;99.90
3055;DHT22;1537;52.018;8.542;2023-04-25T19:04:47;7.60;99.90
3055;DHT22;1537;52.018;8.542;2023-04-25T19:08:12;7.60;99.90
3055;DHT22;1537;52.018;8.542;2023-04-25T19:11:36;7.50;99.90
3055;DHT22;1537;52.018;8.542;2023-04-25T19:15:00;7.40;99.90
3055;DHT22;1537;52.018;8.542;2023-04-25T19:18:24;7.40;99.90
3055;DHT22;1537;52.018;8.542;2023-04-25T19:21:48;7.40;99.90
3055;DHT22;1537;52.018;8.542;2023-04-25T19:25:15;7.30;99.90
3055;DHT22;1537;52.018;8.542;2023-04-25T19:28:42;7.20;99.90
3055;DHT22;1537;52.018;8.542;2023-04-25T19:32:06;7.20;99.90
3055;DHT22;1537;52.018;8.542;2023-04-25T19:35:30;7.10;99.90
3055;DHT22;1537;52.018;8.542;2023-04-25T19:38:54;7.00;99.90
3055;DHT22;1537;52.018;8.542;2023-04-25T19:42:24;6.90;99.90
3055;DHT22;1537;52.018;8.542;2023-04-25T19:45:48;6.80;99.90
3055;DHT22;1537;52.018;8.542;2023-04-25T19:49:12;6.80;99.90
3055;DHT22;1537;52.018;8.542;2023-04-25T19:52:36;6.70;99.90
3055;DHT22;1537;52.018;8.542;2023-04-25T19:56:01;6.70;99.90
3055;DHT22;1537;52.018;8.542;2023-04-25T19:59:26;6.70;99.90
3055;DHT22;1537;52.018;8.542;2023-04-25T20:02:49;6.70;99.90
3055;DHT22;1537;52.018;8.542;2023-04-25T20:06:13;6.70;99.90
3055;DHT22;1537;52.018;8.542;2023-04-25T20:09:37;6.70;99.90
3055;DHT22;1537;52.018;8.542;2023-04-25T20:13:01;6.70;99.90
3055;DHT22;1537;52.018;8.542;2023-04-25T20:16:27;6.80;99.90
3055;DHT22;1537;52.018;8.542;2023-04-25T20:19:50;6.80;99.90
3055;DHT22;1537;52.018;8.542;2023-04-25T20:23:14;6.80;99.90
3055;DHT22;1537;52.018;8.542;2023-04-25T20:26:37;6.80;99.90
3055;DHT22;1537;52.018;8.542;2023-04-25T20:30:01;6.80;99.90
3055;DHT22;1537;52.018;8.542;2023-04-25T20:33:30;6.80;99.90
3055;DHT22;1537;52.018;8.542;2023-04-25T20:36:54;6.80;99.90
3055;DHT22;1537;52.018;8.542;2023-04-25T20:40:19;6.70;99.90
3055;DHT22;1537;52.018;8.542;2023-04-25T20:43:42;6.70;99.90
3055;DHT22;1537;52.018;8.542;2023-04-25T20:47:07;6.60;99.90
3055;DHT22;1537;52.018;8.542;2023-04-25T20:50:32;6.50;99.90
3055;DHT22;1537;52.018;8.542;2023-04-25T20:53:56;6.40;99.90
3055;DHT22;1537;52.018;8.542;2023-04-25T20:57:20;6.40;99.90
3055;DHT22;1537;52.018;8.542;2023-04-25T21:00:43;6.30;99.90
3055;DHT22;1537;52.018;8.542;2023-04-25T21:04:08;6.20;99.90
3055;DHT22;1537;52.018;8.542;2023-04-25T21:07:34;6.20;99.90
3055;DHT22;1537;52.018;8.542;2023-04-25T21:10:57;6.20;99.90
3055;DHT22;1537;52.018;8.542;2023-04-25T21:14:21;6.20;99.90
3055;DHT22;1537;52.018;8.542;2023-04-25T21:17:47;6.20;99.90
3055;DHT22;1537;52.018;8.542;2023-04-25T21:21:11;6.10;99.90
3055;DHT22;1537;52.018;8.542;2023-04-25T21:24:36;6.00;99.90
3055;DHT22;1537;52.018;8.542;2023-04-25T21:27:59;6.00;99.90
3055;DHT22;1537;52.018;8.542;2023-04-25T21:31:24;6.00;99.90
3055;DHT22;1537;52.018;8.542;2023-04-25T21:34:47;6.00;99.90
3055;DHT22;1537;52.018;8.542;2023-04-25T21:38:11;6.00;99.90
3055;DHT22;1537;52.018;8.542;2023-04-25T21:41:37;6.00;99.90
3055;DHT22;1537;52.018;8.542;2023-04-25T21:45:02;6.00;99.90
3055;DHT22;1537;52.018;8.542;2023-04-25T21:48:26;5.90;99.90
3055;DHT22;1537;52.018;8.542;2023-04-25T21:51:50;5.90;99.90
3055;DHT22;1537;52.018;8.542;2023-04-25T21:55:15;5.90;99.90
3055;DHT22;1537;52.018;8.542;2023-04-25T21:58:40;5.80;99.90
3055;DHT22;1537;52.018;8.542;2023-04-25T22:02:03;5.80;99.90
3055;DHT22;1537;52.018;8.542;2023-04-25T22:05:27;5.70;99.90
3055;DHT22;1537;52.018;8.542;2023-04-25T22:08:51;5.70;99.90
3055;DHT22;1537;52.018;8.542;2023-04-25T22:12:15;5.60;99.90
3055;DHT22;1537;52.018;8.542;2023-04-25T22:15:40;5.50;99.90
3055;DHT22;1537;52.018;8.542;2023-04-25T22:19:04;5.60;99.90
3055;DHT22;1537;52.018;8.542;2023-04-25T22:22:29;5.50;99.90
3055;DHT22;1537;52.018;8.542;2023-04-25T22:25:52;5.40;99.90
3055;DHT22;1537;52.018;8.542;2023-04-25T22:29:16;5.40;99.90
3055;DHT22;1537;52.018;8.542;2023-04-25T22:32:42;5.30;99.90
3055;DHT22;1537;52.018;8.542;2023-04-25T22:36:06;5.30;99.90
3055;DHT22;1537;52.018;8.542;2023-04-25T22:39:30;5.30;99.90
3055;DHT22;1537;52.018;8.542;2023-04-25T22:42:53;5.30;99.90
3055;DHT22;1537;52.018;8.542;2023-04-25T22:46:18;5.30;99.90